Terminal Aerodrome Forecast
Issued by NWS

Home | Current Version | Previous Version | Text Only | Print | Product List | Glossary On
Versions: 1 2 3 4 5 6 7 8 9 10 11 12 13 14 15 16 17 18 19 20
160
FTAK31 PAJN 241129
TAFAPG
TAF
PAPG 241129Z 2412/2512 00000KT 1/2SM FG OVC004
     FM241500 00000KT 1SM BR OVC005
     FM241700 00000KT 3SM BR OVC008
     FM241800 VRB03KT 4SM BR OVC015
     FM242000 04005KT P6SM BKN040
      AMD LTD TO CLD VIS AND WIND 2412/2415=

USA.gov is the U.S. government's official web portal to all federal, state and local government web resources and services.